sensor_id;sensor_type;location;lat;lon;timestamp;pressure;altitude;pressure_sealevel;temperature;humidity
19751;BME280;4663;49.120;9.730;2023-08-12T00:00:33;98372.28;;;20.64;78.52
19751;BME280;4663;49.120;9.730;2023-08-12T00:02:59;98368.94;;;21.01;77.53
19751;BME280;4663;49.120;9.730;2023-08-12T00:05:24;98362.97;;;20.39;78.97
19751;BME280;4663;49.120;9.730;2023-08-12T00:07:50;98367.47;;;20.98;77.51
19751;BME280;4663;49.120;9.730;2023-08-12T00:10:15;98355.06;;;21.35;75.92
19751;BME280;4663;49.120;9.730;2023-08-12T00:12:41;98357.91;;;21.21;76.74
19751;BME280;4663;49.120;9.730;2023-08-12T00:15:07;98353.66;;;20.93;77.99
19751;BME280;4663;49.120;9.730;2023-08-12T00:17:33;98353.66;;;20.93;77.32
19751;BME280;4663;49.120;9.730;2023-08-12T00:20:00;98357.28;;;20.48;79.20
19751;BME280;4663;49.120;9.730;2023-08-12T00:22:25;98352.03;;;21.17;77.15
19751;BME280;4663;49.120;9.730;2023-08-12T00:24:51;98343.91;;;21.11;76.75
19751;BME280;4663;49.120;9.730;2023-08-12T00:27:17;98337.84;;;21.34;75.75
19751;BME280;4663;49.120;9.730;2023-08-12T00:29:42;98347.00;;;21.21;76.35
19751;BME280;4663;49.120;9.730;2023-08-12T00:32:08;98341.34;;;21.16;76.80
19751;BME280;4663;49.120;9.730;2023-08-12T00:34:34;98343.31;;;20.24;79.18
19751;BME280;4663;49.120;9.730;2023-08-12T00:36:59;98334.59;;;20.54;78.47
19751;BME280;4663;49.120;9.730;2023-08-12T00:39:25;98330.47;;;21.09;76.87
19751;BME280;4663;49.120;9.730;2023-08-12T00:41:50;98336.34;;;20.41;78.53
19751;BME280;4663;49.120;9.730;2023-08-12T00:44:15;98333.66;;;20.21;78.55
19751;BME280;4663;49.120;9.730;2023-08-12T00:46:42;98329.44;;;20.78;77.20
19751;BME280;4663;49.120;9.730;2023-08-12T00:49:08;98328.16;;;20.80;76.63
19751;BME280;4663;49.120;9.730;2023-08-12T00:51:34;98335.03;;;20.58;77.46
19751;BME280;4663;49.120;9.730;2023-08-12T00:54:02;98328.72;;;20.89;76.96
19751;BME280;4663;49.120;9.730;2023-08-12T00:56:30;98324.03;;;20.71;76.50
19751;BME280;4663;49.120;9.730;2023-08-12T00:58:57;98327.34;;;20.73;77.11
19751;BME280;4663;49.120;9.730;2023-08-12T01:01:23;98323.50;;;20.88;76.37
19751;BME280;4663;49.120;9.730;2023-08-12T01:03:48;98319.97;;;20.48;77.73
19751;BME280;4663;49.120;9.730;2023-08-12T01:06:29;98309.97;;;20.28;78.15
19751;BME280;4663;49.120;9.730;2023-08-12T01:08:54;98308.25;;;20.41;78.01
19751;BME280;4663;49.120;9.730;2023-08-12T01:16:45;98295.31;;;20.36;77.81
19751;BME280;4663;49.120;9.730;2023-08-12T01:19:30;98291.41;;;20.12;78.54
19751;BME280;4663;49.120;9.730;2023-08-12T01:22:00;98291.03;;;20.01;78.94
19751;BME280;4663;49.120;9.730;2023-08-12T01:24:27;98281.41;;;20.51;77.51
19751;BME280;4663;49.120;9.730;2023-08-12T01:26:58;98286.31;;;20.68;76.90
19751;BME280;4663;49.120;9.730;2023-08-12T01:29:24;98283.00;;;20.66;76.67
19751;BME280;4663;49.120;9.730;2023-08-12T01:32:00;98277.34;;;20.22;77.75
19751;BME280;4663;49.120;9.730;2023-08-12T01:35:00;98275.78;;;20.39;77.65
19751;BME280;4663;49.120;9.730;2023-08-12T01:37:25;98282.78;;;20.22;77.65
19751;BME280;4663;49.120;9.730;2023-08-12T01:39:53;98279.00;;;19.77;79.35
19751;BME280;4663;49.120;9.730;2023-08-12T01:42:19;98283.88;;;20.14;78.18
19751;BME280;4663;49.120;9.730;2023-08-12T01:44:46;98267.69;;;20.26;78.01
19751;BME280;4663;49.120;9.730;2023-08-12T01:47:12;98266.59;;;20.40;77.32
19751;BME280;4663;49.120;9.730;2023-08-12T01:49:37;98273.66;;;20.02;78.50
19751;BME280;4663;49.120;9.730;2023-08-12T01:52:03;98271.25;;;19.53;79.73
19751;BME280;4663;49.120;9.730;2023-08-12T01:54:28;98269.91;;;19.97;78.97
19751;BME280;4663;49.120;9.730;2023-08-12T01:57:03;98273.66;;;19.96;78.22
19751;BME280;4663;49.120;9.730;2023-08-12T01:59:39;98270.63;;;19.72;78.66
19751;BME280;4663;49.120;9.730;2023-08-12T02:02:05;98262.88;;;20.21;77.39
19751;BME280;4663;49.120;9.730;2023-08-12T02:04:30;98266.28;;;20.55;76.92
19751;BME280;4663;49.120;9.730;2023-08-12T02:06:56;98269.09;;;20.42;76.85
19751;BME280;4663;49.120;9.730;2023-08-12T02:09:22;98272.78;;;20.09;77.88
19751;BME280;4663;49.120;9.730;2023-08-12T02:11:57;98275.00;;;19.79;79.01
19751;BME280;4663;49.120;9.730;2023-08-12T02:14:22;98264.41;;;20.49;76.96
19751;BME280;4663;49.120;9.730;2023-08-12T02:16:48;98265.56;;;20.35;77.21
19751;BME280;4663;49.120;9.730;2023-08-12T02:19:13;98267.19;;;19.97;78.09
19751;BME280;4663;49.120;9.730;2023-08-12T02:21:38;98258.66;;;20.32;77.51
19751;BME280;4663;49.120;9.730;2023-08-12T02:24:04;98261.59;;;19.78;78.92
19751;BME280;4663;49.120;9.730;2023-08-12T02:26:30;98260.13;;;20.28;77.50
19751;BME280;4663;49.120;9.730;2023-08-12T02:28:55;98264.63;;;20.54;76.72
19751;BME280;4663;49.120;9.730;2023-08-12T02:31:21;98260.03;;;20.48;76.73
19751;BME280;4663;49.120;9.730;2023-08-12T02:33:46;98259.69;;;20.38;77.20
19751;BME280;4663;49.120;9.730;2023-08-12T02:36:11;98257.16;;;20.29;77.04
19751;BME280;4663;49.120;9.730;2023-08-12T02:38:37;98260.69;;;19.98;77.96
19751;BME280;4663;49.120;9.730;2023-08-12T02:41:02;98248.94;;;19.97;77.93
19751;BME280;4663;49.120;9.730;2023-08-12T02:43:28;98255.13;;;20.25;77.50
19751;BME280;4663;49.120;9.730;2023-08-12T02:45:53;98250.84;;;20.42;76.68
19751;BME280;4663;49.120;9.730;2023-08-12T02:48:18;98248.69;;;20.51;76.58
19751;BME280;4663;49.120;9.730;2023-08-12T02:50:44;98245.47;;;20.29;76.98
19751;BME280;4663;49.120;9.730;2023-08-12T02:53:09;98249.84;;;20.37;76.39
19751;BME280;4663;49.120;9.730;2023-08-12T02:55:35;98251.97;;;20.21;77.36
19751;BME280;4663;49.120;9.730;2023-08-12T02:58:01;98254.94;;;19.67;79.15
19751;BME280;4663;49.120;9.730;2023-08-12T03:00:26;98244.28;;;20.11;77.02
19751;BME280;4663;49.120;9.730;2023-08-12T03:02:52;98247.72;;;19.93;77.94
19751;BME280;4663;49.120;9.730;2023-08-12T03:05:18;98238.16;;;19.77;77.91
19751;BME280;4663;49.120;9.730;2023-08-12T03:07:43;98242.41;;;19.46;79.38
19751;BME280;4663;49.120;9.730;2023-08-12T03:10:09;98234.06;;;19.34;79.54
19751;BME280;4663;49.120;9.730;2023-08-12T03:12:34;98241.19;;;19.35;79.60
19751;BME280;4663;49.120;9.730;2023-08-12T03:15:01;98241.84;;;19.17;80.02
19751;BME280;4663;49.120;9.730;2023-08-12T03:17:26;98228.78;;;19.59;79.11
19751;BME280;4663;49.120;9.730;2023-08-12T03:19:51;98223.66;;;20.36;76.57
19751;BME280;4663;49.120;9.730;2023-08-12T03:22:19;98225.16;;;20.25;76.80
19751;BME280;4663;49.120;9.730;2023-08-12T03:24:45;98239.69;;;19.66;78.51
19751;BME280;4663;49.120;9.730;2023-08-12T03:27:10;98234.94;;;19.14;79.88
19751;BME280;4663;49.120;9.730;2023-08-12T03:29:35;98222.59;;;18.64;81.31
19751;BME280;4663;49.120;9.730;2023-08-12T03:32:01;98225.56;;;18.83;81.64
19751;BME280;4663;49.120;9.730;2023-08-12T03:34:28;98214.13;;;19.53;78.80
19751;BME280;4663;49.120;9.730;2023-08-12T03:36:55;98214.66;;;19.23;79.50
19751;BME280;4663;49.120;9.730;2023-08-12T03:39:20;98218.53;;;19.55;79.23
19751;BME280;4663;49.120;9.730;2023-08-12T03:41:46;98217.91;;;19.59;78.90
19751;BME280;4663;49.120;9.730;2023-08-12T03:44:11;98205.41;;;19.97;77.21
19751;BME280;4663;49.120;9.730;2023-08-12T03:46:36;98218.97;;;19.51;78.34
19751;BME280;4663;49.120;9.730;2023-08-12T03:49:02;98216.91;;;19.40;79.21
19751;BME280;4663;49.120;9.730;2023-08-12T03:51:27;98220.28;;;19.28;79.38
19751;BME280;4663;49.120;9.730;2023-08-12T03:53:52;98223.19;;;19.34;79.36
19751;BME280;4663;49.120;9.730;2023-08-12T03:56:37;98223.44;;;19.91;77.44
19751;BME280;4663;49.120;9.730;2023-08-12T03:59:02;98215.34;;;19.78;77.32
19751;BME280;4663;49.120;9.730;2023-08-12T04:01:27;98218.53;;;20.14;76.34
19751;BME280;4663;49.120;9.730;2023-08-12T04:03:53;98217.78;;;20.39;75.93
19751;BME280;4663;49.120;9.730;2023-08-12T04:06:18;98220.22;;;20.47;76.28
19751;BME280;4663;49.120;9.730;2023-08-12T04:08:43;98212.56;;;20.63;75.49
19751;BME280;4663;49.120;9.730;2023-08-12T04:11:24;98216.59;;;20.21;76.85
19751;BME280;4663;49.120;9.730;2023-08-12T04:13:49;98209.78;;;20.44;76.56
19751;BME280;4663;49.120;9.730;2023-08-12T04:16:15;98225.31;;;20.43;76.55
19751;BME280;4663;49.120;9.730;2023-08-12T04:18:40;98215.22;;;20.44;76.63
19751;BME280;4663;49.120;9.730;2023-08-12T04:21:05;98220.38;;;20.20;77.44
19751;BME280;4663;49.120;9.730;2023-08-12T04:23:31;98215.94;;;20.26;77.30
19751;BME280;4663;49.120;9.730;2023-08-12T04:25:56;98217.69;;;20.13;77.88
19751;BME280;4663;49.120;9.730;2023-08-12T04:28:21;98219.44;;;20.40;76.85
19751;BME280;4663;49.120;9.730;2023-08-12T04:30:59;98212.81;;;20.87;75.44
19751;BME280;4663;49.120;9.730;2023-08-12T04:33:24;98225.03;;;21.03;74.87
19751;BME280;4663;49.120;9.730;2023-08-12T04:36:05;98223.50;;;21.14;74.36
19751;BME280;4663;49.120;9.730;2023-08-12T04:38:31;98226.72;;;21.04;74.62
19751;BME280;4663;49.120;9.730;2023-08-12T04:40:56;98218.81;;;21.21;74.18
19751;BME280;4663;49.120;9.730;2023-08-12T04:43:22;98225.72;;;20.98;75.01
19751;BME280;4663;49.120;9.730;2023-08-12T04:46:03;98220.94;;;21.19;74.43
19751;BME280;4663;49.120;9.730;2023-08-12T04:48:28;98223.94;;;20.85;75.20
19751;BME280;4663;49.120;9.730;2023-08-12T04:50:56;98219.34;;;21.11;74.93
19751;BME280;4663;49.120;9.730;2023-08-12T04:53:25;98226.28;;;20.49;76.28
19751;BME280;4663;49.120;9.730;2023-08-12T04:55:50;98216.56;;;20.35;77.71
19751;BME280;4663;49.120;9.730;2023-08-12T04:58:16;98231.03;;;20.61;76.62
19751;BME280;4663;49.120;9.730;2023-08-12T05:00:42;98224.34;;;21.07;74.97
19751;BME280;4663;49.120;9.730;2023-08-12T05:03:07;98217.31;;;20.74;76.67
19751;BME280;4663;49.120;9.730;2023-08-12T05:05:33;98221.50;;;20.45;77.42
19751;BME280;4663;49.120;9.730;2023-08-12T05:07:58;98210.03;;;20.36;77.35
19751;BME280;4663;49.120;9.730;2023-08-12T05:10:23;98217.09;;;20.76;76.17
19751;BME280;4663;49.120;9.730;2023-08-12T05:12:49;98216.31;;;20.68;76.01
19751;BME280;4663;49.120;9.730;2023-08-12T05:15:15;98204.81;;;20.27;77.41
19751;BME280;4663;49.120;9.730;2023-08-12T05:17:41;98197.00;;;20.45;77.20
19751;BME280;4663;49.120;9.730;2023-08-12T05:20:07;98203.03;;;20.53;77.05
19751;BME280;4663;49.120;9.730;2023-08-12T05:22:33;98225.19;;;19.72;80.19
19751;BME280;4663;49.120;9.730;2023-08-12T05:24:58;98214.50;;;20.55;77.65
19751;BME280;4663;49.120;9.730;2023-08-12T05:27:24;98224.56;;;20.16;78.92
19751;BME280;4663;49.120;9.730;2023-08-12T05:29:49;98216.28;;;20.43;78.05
19751;BME280;4663;49.120;9.730;2023-08-12T05:32:15;98209.44;;;20.59;77.20
19751;BME280;4663;49.120;9.730;2023-08-12T05:34:40;98218.00;;;20.30;78.58
19751;BME280;4663;49.120;9.730;2023-08-12T05:37:05;98231.72;;;20.81;78.14
19751;BME280;4663;49.120;9.730;2023-08-12T05:39:31;98220.66;;;21.46;75.79
19751;BME280;4663;49.120;9.730;2023-08-12T05:42:05;98218.31;;;21.31;74.11
19751;BME280;4663;49.120;9.730;2023-08-12T05:44:31;98221.25;;;20.78;76.96
19751;BME280;4663;49.120;9.730;2023-08-12T05:46:56;98223.38;;;20.76;77.92
19751;BME280;4663;49.120;9.730;2023-08-12T05:49:22;98235.38;;;21.45;76.32
19751;BME280;4663;49.120;9.730;2023-08-12T05:51:47;98245.63;;;21.24;76.27
19751;BME280;4663;49.120;9.730;2023-08-12T05:54:13;98236.25;;;21.76;74.81
19751;BME280;4663;49.120;9.730;2023-08-12T05:56:38;98237.47;;;21.99;74.79
19751;BME280;4663;49.120;9.730;2023-08-12T05:59:03;98236.19;;;21.45;74.74
19751;BME280;4663;49.120;9.730;2023-08-12T06:01:29;98229.75;;;21.77;74.08
19751;BME280;4663;49.120;9.730;2023-08-12T06:03:54;98228.06;;;21.76;75.32
19751;BME280;4663;49.120;9.730;2023-08-12T06:06:19;98220.44;;;22.16;74.43
19751;BME280;4663;49.120;9.730;2023-08-12T06:08:45;98235.47;;;21.31;75.86
19751;BME280;4663;49.120;9.730;2023-08-12T06:11:10;98217.75;;;21.78;75.04
19751;BME280;4663;49.120;9.730;2023-08-12T06:13:36;98213.28;;;22.03;74.34
19751;BME280;4663;49.120;9.730;2023-08-12T06:16:01;98210.09;;;22.37;74.16
19751;BME280;4663;49.120;9.730;2023-08-12T06:18:26;98222.94;;;22.17;74.65
19751;BME280;4663;49.120;9.730;2023-08-12T06:21:04;98231.19;;;21.80;75.32
19751;BME280;4663;49.120;9.730;2023-08-12T06:23:29;98229.19;;;21.12;77.94
19751;BME280;4663;49.120;9.730;2023-08-12T06:26:07;98224.78;;;21.04;78.07
19751;BME280;4663;49.120;9.730;2023-08-12T06:28:33;98226.50;;;21.05;78.57
19751;BME280;4663;49.120;9.730;2023-08-12T06:30:58;98220.78;;;21.32;77.32
19751;BME280;4663;49.120;9.730;2023-08-12T06:33:23;98221.88;;;21.50;77.35
19751;BME280;4663;49.120;9.730;2023-08-12T06:35:50;98218.84;;;21.58;77.11
19751;BME280;4663;49.120;9.730;2023-08-12T06:38:15;98209.66;;;21.90;76.55
19751;BME280;4663;49.120;9.730;2023-08-12T06:40:56;98212.25;;;22.46;74.99
19751;BME280;4663;49.120;9.730;2023-08-12T06:43:21;98222.81;;;23.09;72.98
19751;BME280;4663;49.120;9.730;2023-08-12T06:45:46;98224.94;;;23.07;72.80
19751;BME280;4663;49.120;9.730;2023-08-12T06:48:12;98229.22;;;23.51;71.94
19751;BME280;4663;49.120;9.730;2023-08-12T06:50:54;98233.28;;;23.12;72.17
19751;BME280;4663;49.120;9.730;2023-08-12T06:53:20;98234.84;;;23.32;72.41
19751;BME280;4663;49.120;9.730;2023-08-12T06:55:58;98229.31;;;22.72;73.84
19751;BME280;4663;49.120;9.730;2023-08-12T06:58:23;98220.63;;;21.83;75.21
19751;BME280;4663;49.120;9.730;2023-08-12T07:01:04;98211.69;;;22.56;74.97
19751;BME280;4663;49.120;9.730;2023-08-12T07:03:29;98211.75;;;23.04;72.91
19751;BME280;4663;49.120;9.730;2023-08-12T07:05:55;98198.09;;;22.07;74.28
19751;BME280;4663;49.120;9.730;2023-08-12T07:08:20;98216.75;;;22.41;74.37
19751;BME280;4663;49.120;9.730;2023-08-12T07:10:58;98223.53;;;23.29;72.74
19751;BME280;4663;49.120;9.730;2023-08-12T07:13:23;98217.00;;;23.42;72.66
19751;BME280;4663;49.120;9.730;2023-08-12T07:16:20;98198.09;;;24.22;71.22
19751;BME280;4663;49.120;9.730;2023-08-12T07:18:45;98198.50;;;23.73;72.00
19751;BME280;4663;49.120;9.730;2023-08-12T07:21:10;98190.28;;;23.73;72.45
19751;BME280;4663;49.120;9.730;2023-08-12T07:23:36;98196.22;;;24.57;70.22
19751;BME280;4663;49.120;9.730;2023-08-12T07:26:01;98198.69;;;24.41;69.69
19751;BME280;4663;49.120;9.730;2023-08-12T07:28:27;98198.56;;;23.90;70.21
19751;BME280;4663;49.120;9.730;2023-08-12T07:30:52;98222.81;;;23.57;73.75
19751;BME280;4663;49.120;9.730;2023-08-12T07:33:19;98213.44;;;23.82;73.27
19751;BME280;4663;49.120;9.730;2023-08-12T07:35:46;98216.56;;;25.69;69.47
19751;BME280;4663;49.120;9.730;2023-08-12T07:38:11;98216.63;;;24.96;70.44
19751;BME280;4663;49.120;9.730;2023-08-12T07:40:37;98218.81;;;25.33;67.72
19751;BME280;4663;49.120;9.730;2023-08-12T07:43:02;98223.34;;;26.06;67.10
19751;BME280;4663;49.120;9.730;2023-08-12T07:45:28;98219.59;;;28.18;61.17
19751;BME280;4663;49.120;9.730;2023-08-12T07:47:54;98229.91;;;24.70;69.23
19751;BME280;4663;49.120;9.730;2023-08-12T07:50:19;98226.38;;;25.43;68.44
19751;BME280;4663;49.120;9.730;2023-08-12T07:52:45;98227.09;;;24.35;70.04
19751;BME280;4663;49.120;9.730;2023-08-12T07:55:10;98225.69;;;25.98;67.94
19751;BME280;4663;49.120;9.730;2023-08-12T07:57:37;98230.47;;;26.30;67.04
19751;BME280;4663;49.120;9.730;2023-08-12T08:00:03;98218.13;;;27.90;64.36
19751;BME280;4663;49.120;9.730;2023-08-12T08:02:29;98217.66;;;26.41;66.15
19751;BME280;4663;49.120;9.730;2023-08-12T08:04:54;98204.13;;;28.02;60.83
19751;BME280;4663;49.120;9.730;2023-08-12T08:07:19;98210.69;;;29.77;59.64
19751;BME280;4663;49.120;9.730;2023-08-12T08:09:45;98229.53;;;25.74;66.89
19751;BME280;4663;49.120;9.730;2023-08-12T08:12:10;98213.59;;;26.76;65.02
19751;BME280;4663;49.120;9.730;2023-08-12T08:14:36;98209.69;;;29.42;62.35
19751;BME280;4663;49.120;9.730;2023-08-12T08:17:02;98202.81;;;34.39;52.24
19751;BME280;4663;49.120;9.730;2023-08-12T08:19:29;98202.19;;;30.94;56.42
19751;BME280;4663;49.120;9.730;2023-08-12T08:21:54;98186.56;;;35.42;49.94
19751;BME280;4663;49.120;9.730;2023-08-12T08:24:20;98206.91;;;28.12;60.70
19751;BME280;4663;49.120;9.730;2023-08-12T08:26:45;98200.59;;;30.58;58.09
19751;BME280;4663;49.120;9.730;2023-08-12T08:29:12;98197.75;;;31.28;55.26
19751;BME280;4663;49.120;9.730;2023-08-12T08:31:38;98206.59;;;31.79;56.43
19751;BME280;4663;49.120;9.730;2023-08-12T08:34:03;98198.72;;;29.06;58.76
19751;BME280;4663;49.120;9.730;2023-08-12T08:36:29;98204.22;;;30.48;58.85
19751;BME280;4663;49.120;9.730;2023-08-12T08:38:54;98204.97;;;30.94;58.62
19751;BME280;4663;49.120;9.730;2023-08-12T08:41:20;98200.66;;;31.12;58.73
19751;BME280;4663;49.120;9.730;2023-08-12T08:43:47;98198.34;;;31.49;56.40
19751;BME280;4663;49.120;9.730;2023-08-12T08:46:31;98195.41;;;29.14;57.70
19751;BME280;4663;49.120;9.730;2023-08-12T08:48:58;98210.00;;;30.12;58.74
19751;BME280;4663;49.120;9.730;2023-08-12T08:51:25;98198.28;;;29.75;57.56
19751;BME280;4663;49.120;9.730;2023-08-12T08:53:53;98216.31;;;30.63;59.32
19751;BME280;4663;49.120;9.730;2023-08-12T08:56:19;98203.03;;;30.65;58.07
19751;BME280;4663;49.120;9.730;2023-08-12T08:58:46;98220.53;;;29.12;63.15
19751;BME280;4663;49.120;9.730;2023-08-12T09:01:11;98220.09;;;28.05;67.68
19751;BME280;4663;49.120;9.730;2023-08-12T09:03:38;98210.53;;;28.28;66.74
19751;BME280;4663;49.120;9.730;2023-08-12T09:06:03;98200.22;;;27.82;67.29
19751;BME280;4663;49.120;9.730;2023-08-12T09:08:31;98195.53;;;27.82;67.44
19751;BME280;4663;49.120;9.730;2023-08-12T09:11:02;98192.94;;;28.40;66.18
19751;BME280;4663;49.120;9.730;2023-08-12T09:13:27;98188.53;;;28.59;66.22
19751;BME280;4663;49.120;9.730;2023-08-12T09:16:05;98197.09;;;28.73;66.04
19751;BME280;4663;49.120;9.730;2023-08-12T09:18:31;98202.84;;;28.41;66.39
19751;BME280;4663;49.120;9.730;2023-08-12T09:20:56;98198.63;;;28.02;66.78
19751;BME280;4663;49.120;9.730;2023-08-12T09:23:22;98205.41;;;27.78;69.10
19751;BME280;4663;49.120;9.730;2023-08-12T09:26:01;98191.47;;;28.06;68.87
19751;BME280;4663;49.120;9.730;2023-08-12T09:28:26;98190.84;;;27.83;68.54
19751;BME280;4663;49.120;9.730;2023-08-12T09:31:04;98194.63;;;29.79;64.18
19751;BME280;4663;49.120;9.730;2023-08-12T09:33:29;98184.94;;;31.02;57.79
19751;BME280;4663;49.120;9.730;2023-08-12T09:35:54;98188.13;;;30.55;59.36
19751;BME280;4663;49.120;9.730;2023-08-12T09:38:22;98189.25;;;30.09;59.50
19751;BME280;4663;49.120;9.730;2023-08-12T09:41:02;98181.34;;;31.56;57.35
19751;BME280;4663;49.120;9.730;2023-08-12T09:43:28;98182.00;;;30.64;57.59
19751;BME280;4663;49.120;9.730;2023-08-12T09:45:57;98193.59;;;30.66;58.98
19751;BME280;4663;49.120;9.730;2023-08-12T09:48:25;98191.63;;;31.55;58.28
19751;BME280;4663;49.120;9.730;2023-08-12T09:50:56;98189.81;;;30.57;58.55
19751;BME280;4663;49.120;9.730;2023-08-12T09:53:23;98197.47;;;30.25;58.91
19751;BME280;4663;49.120;9.730;2023-08-12T09:56:07;98196.75;;;29.98;60.16
19751;BME280;4663;49.120;9.730;2023-08-12T09:58:35;98182.81;;;30.94;58.18
19751;BME280;4663;49.120;9.730;2023-08-12T10:01:02;98184.56;;;30.10;58.80
19751;BME280;4663;49.120;9.730;2023-08-12T10:03:29;98175.13;;;31.45;57.63
19751;BME280;4663;49.120;9.730;2023-08-12T10:05:55;98181.28;;;33.10;55.65
19751;BME280;4663;49.120;9.730;2023-08-12T10:08:21;98190.06;;;30.90;59.00
19751;BME280;4663;49.120;9.730;2023-08-12T10:11:08;98170.78;;;31.82;56.30
19751;BME280;4663;49.120;9.730;2023-08-12T10:13:35;98169.50;;;32.71;55.45
19751;BME280;4663;49.120;9.730;2023-08-12T10:16:02;98168.88;;;31.34;57.31
19751;BME280;4663;49.120;9.730;2023-08-12T10:18:28;98176.66;;;30.73;58.87
19751;BME280;4663;49.120;9.730;2023-08-12T10:20:57;98164.22;;;31.29;56.71
19751;BME280;4663;49.120;9.730;2023-08-12T10:23:24;98159.97;;;30.83;58.79
19751;BME280;4663;49.120;9.730;2023-08-12T10:25:57;98149.72;;;33.06;54.57
19751;BME280;4663;49.120;9.730;2023-08-12T10:28:25;98151.56;;;33.10;53.50
19751;BME280;4663;49.120;9.730;2023-08-12T10:30:57;98140.59;;;32.39;54.57
19751;BME280;4663;49.120;9.730;2023-08-12T10:33:22;98141.25;;;32.97;54.56
19751;BME280;4663;49.120;9.730;2023-08-12T10:36:04;98136.47;;;33.17;53.42
19751;BME280;4663;49.120;9.730;2023-08-12T10:38:31;98135.56;;;32.41;53.95
19751;BME280;4663;49.120;9.730;2023-08-12T10:46:42;98124.91;;;32.95;53.65
19751;BME280;4663;49.120;9.730;2023-08-12T10:49:14;98102.16;;;32.46;53.29
19751;BME280;4663;49.120;9.730;2023-08-12T10:54:13;98092.59;;;32.99;52.76
19751;BME280;4663;49.120;9.730;2023-08-12T11:02:21;98091.88;;;32.94;51.37
19751;BME280;4663;49.120;9.730;2023-08-12T11:05:03;98104.78;;;32.23;53.14
19751;BME280;4663;49.120;9.730;2023-08-12T11:07:44;98107.22;;;32.44;53.21
19751;BME280;4663;49.120;9.730;2023-08-12T11:10:14;98126.13;;;32.03;55.38
19751;BME280;4663;49.120;9.730;2023-08-12T11:12:42;98113.81;;;32.15;55.02
19751;BME280;4663;49.120;9.730;2023-08-12T11:15:11;98107.00;;;31.19;54.28
19751;BME280;4663;49.120;9.730;2023-08-12T11:17:40;98126.00;;;31.94;55.38
19751;BME280;4663;49.120;9.730;2023-08-12T11:20:07;98132.63;;;31.01;59.50
19751;BME280;4663;49.120;9.730;2023-08-12T11:22:39;98093.09;;;31.88;53.29
19751;BME280;4663;49.120;9.730;2023-08-12T11:25:12;98102.97;;;32.32;54.37
19751;BME280;4663;49.120;9.730;2023-08-12T11:27:41;98110.00;;;31.23;57.65
19751;BME280;4663;49.120;9.730;2023-08-12T11:30:09;98091.47;;;32.39;54.10
19751;BME280;4663;49.120;9.730;2023-08-12T11:32:36;98101.91;;;31.51;56.91
19751;BME280;4663;49.120;9.730;2023-08-12T11:35:03;98074.50;;;32.07;54.80
19751;BME280;4663;49.120;9.730;2023-08-12T11:37:29;98089.13;;;31.06;58.39
19751;BME280;4663;49.120;9.730;2023-08-12T11:39:54;98077.69;;;31.38;56.80
19751;BME280;4663;49.120;9.730;2023-08-12T11:42:20;98087.97;;;31.56;58.86
19751;BME280;4663;49.120;9.730;2023-08-12T11:44:45;98078.22;;;30.91;59.22
19751;BME280;4663;49.120;9.730;2023-08-12T11:47:11;98064.69;;;31.14;58.45
19751;BME280;4663;49.120;9.730;2023-08-12T11:49:36;98062.00;;;31.71;57.64
19751;BME280;4663;49.120;9.730;2023-08-12T11:52:02;98068.31;;;31.14;60.87
19751;BME280;4663;49.120;9.730;2023-08-12T11:54:28;98056.97;;;31.11;59.38
19751;BME280;4663;49.120;9.730;2023-08-12T11:56:53;98057.72;;;32.65;56.96
19751;BME280;4663;49.120;9.730;2023-08-12T11:59:23;98048.50;;;33.12;53.48
19751;BME280;4663;49.120;9.730;2023-08-12T12:01:54;98043.88;;;32.79;51.76
19751;BME280;4663;49.120;9.730;2023-08-12T12:04:23;98057.09;;;32.54;51.84
19751;BME280;4663;49.120;9.730;2023-08-12T12:06:49;98067.00;;;32.27;52.52
19751;BME280;4663;49.120;9.730;2023-08-12T12:09:15;98105.59;;;32.04;57.17
19751;BME280;4663;49.120;9.730;2023-08-12T12:11:43;98109.25;;;31.17;57.89
19751;BME280;4663;49.120;9.730;2023-08-12T12:14:09;98104.84;;;30.87;58.17
19751;BME280;4663;49.120;9.730;2023-08-12T12:16:42;98104.09;;;31.05;56.31
19751;BME280;4663;49.120;9.730;2023-08-12T12:19:18;98108.34;;;29.43;61.24
19751;BME280;4663;49.120;9.730;2023-08-12T12:21:51;98105.00;;;29.51;62.14
19751;BME280;4663;49.120;9.730;2023-08-12T12:24:18;98111.38;;;29.41;61.57
19751;BME280;4663;49.120;9.730;2023-08-12T12:26:44;98118.72;;;29.00;62.64
19751;BME280;4663;49.120;9.730;2023-08-12T12:29:10;98122.47;;;29.31;62.83
19751;BME280;4663;49.120;9.730;2023-08-12T12:31:41;98130.56;;;28.85;64.42
19751;BME280;4663;49.120;9.730;2023-08-12T12:34:07;98129.78;;;28.69;63.46
19751;BME280;4663;49.120;9.730;2023-08-12T12:36:34;98137.47;;;28.72;64.16
19751;BME280;4663;49.120;9.730;2023-08-12T12:39:00;98132.28;;;28.40;65.53
19751;BME280;4663;49.120;9.730;2023-08-12T12:41:27;98135.81;;;28.30;66.19
19751;BME280;4663;49.120;9.730;2023-08-12T12:43:52;98152.09;;;28.42;65.73
19751;BME280;4663;49.120;9.730;2023-08-12T12:46:18;98160.88;;;28.12;66.88
19751;BME280;4663;49.120;9.730;2023-08-12T12:48:43;98183.50;;;28.30;67.73
19751;BME280;4663;49.120;9.730;2023-08-12T12:51:10;98182.91;;;27.92;67.92
19751;BME280;4663;49.120;9.730;2023-08-12T12:53:35;98168.56;;;27.95;68.50
19751;BME280;4663;49.120;9.730;2023-08-12T12:56:01;98172.19;;;28.06;68.54
19751;BME280;4663;49.120;9.730;2023-08-12T12:58:33;98187.28;;;27.88;68.16
19751;BME280;4663;49.120;9.730;2023-08-12T13:01:04;98203.00;;;27.33;70.94
19751;BME280;4663;49.120;9.730;2023-08-12T13:03:30;98201.72;;;27.52;73.22
19751;BME280;4663;49.120;9.730;2023-08-12T13:05:56;98207.81;;;27.59;72.15
19751;BME280;4663;49.120;9.730;2023-08-12T13:08:22;98238.16;;;26.88;74.26
19751;BME280;4663;49.120;9.730;2023-08-12T13:10:57;98240.94;;;26.93;73.87
19751;BME280;4663;49.120;9.730;2023-08-12T13:13:23;98255.63;;;27.42;72.94
19751;BME280;4663;49.120;9.730;2023-08-12T13:15:49;98255.66;;;27.96;69.40
19751;BME280;4663;49.120;9.730;2023-08-12T13:18:14;98277.81;;;27.25;69.76
19751;BME280;4663;49.120;9.730;2023-08-12T13:20:52;98270.94;;;27.22;69.01
19751;BME280;4663;49.120;9.730;2023-08-12T13:23:17;98277.53;;;27.70;68.54
19751;BME280;4663;49.120;9.730;2023-08-12T13:25:43;98286.44;;;26.74;72.90
19751;BME280;4663;49.120;9.730;2023-08-12T13:28:11;98286.91;;;25.71;80.49
19751;BME280;4663;49.120;9.730;2023-08-12T13:30:37;60433.53;;;-151.66;100.00